Brentwood, New York
Current Conditions -  °F | °C
As of 9:56 AM on Friday 31 Oct 2014 (Local Time) from KISP Reporting Station
Broken Clouds Broken Clouds  
Wind Chill: 51°   Ceiling: 5000
Heat Index: 51°   Visibility: 10mi
Dew Point: 41°   Wind: 8mph
Humidity: 68%   Direction: 40°NE
Pressure: 29.99"   Gusts: NA
Location:  40.78°N, 73.25°W
Report Text: KISP 311356Z 04007KT 10SM FEW025 BKN050 BKN260 11/05 A2999 RMK AO2 SLP155 T01060050
Loading
Personal Weather Stations






























Interactive Weather Map New forecast layout! Learn more

10-Day Weather Forecast

Advertisements
Track Severe Weather on mobile